Time;durP1;ratioP1;P1;durP2;ratioP2;P2;SDS_P1;SDS_P2;PMS_P1;PMS_P2;Temp;Humidity;BMP_temperature;BMP_pressure;BME280_temperature;BME280_humidity;BME280_pressure;Samples;Min_cycle;Max_cycle;Signal;HPM_P1;HPM_P2
2021/12/21 00:00:46;;;;;;;261.70;125.05;;;;;;;8.54;100.00;99060.13;4866071;29;20067;-61
2021/12/21 00:03:36;;;;;;;261.25;125.15;;;;;;;8.65;100.00;99046.22;4861189;29;20067;-61
2021/12/21 00:06:25;;;;;;;262.30;125.82;;;;;;;8.54;100.00;99039.56;4857819;29;20502;-61
2021/12/21 00:09:14;;;;;;;258.33;128.35;;;;;;;8.68;100.00;99038.47;4863806;29;20117;-61
2021/12/21 00:11:58;;;;;;;255.13;128.32;;;;;;;8.69;100.00;99029.91;4847087;29;20057;-61
2021/12/21 00:15:21;;;;;;;268.17;129.45;;;;;;;8.63;100.00;99032.53;4865945;29;20145;-61
2021/12/21 00:18:05;;;;;;;268.40;129.27;;;;;;;8.52;100.00;99037.03;4865975;29;20060;-61
2021/12/21 00:21:13;;;;;;;267.02;127.68;;;;;;;8.52;100.00;99051.59;4862727;29;20060;-62
2021/12/21 00:24:12;;;;;;;268.40;131.45;;;;;;;8.63;100.00;99057.38;4846252;29;20060;-61
2021/12/21 00:27:08;;;;;;;270.20;132.02;;;;;;;8.45;100.00;99076.50;4850533;29;20073;-62
2021/12/21 00:29:58;;;;;;;276.42;131.68;;;;;;;8.39;100.00;99085.13;4860476;29;20061;-62
2021/12/21 00:32:41;;;;;;;280.70;131.65;;;;;;;8.27;100.00;99092.97;4860843;29;20113;-62
2021/12/21 00:35:31;;;;;;;258.88;125.97;;;;;;;8.12;100.00;99105.19;4849209;29;20489;-62
2021/12/21 00:38:13;;;;;;;259.60;127.72;;;;;;;8.39;100.00;99099.69;4866717;29;20060;-61
2021/12/21 00:41:04;;;;;;;272.08;130.25;;;;;;;8.28;100.00;99096.41;4865819;29;20389;-61
2021/12/21 00:43:53;;;;;;;270.48;130.32;;;;;;;8.30;100.00;99092.91;4867799;29;20050;-62
2021/12/21 00:46:44;;;;;;;271.80;130.27;;;;;;;8.19;100.00;99104.22;4862379;29;20143;-63
2021/12/21 00:49:27;;;;;;;257.58;126.15;;;;;;;8.17;100.00;99099.09;4864246;29;20121;-62
2021/12/21 00:52:17;;;;;;;281.65;132.75;;;;;;;8.18;100.00;99102.53;4863301;29;20061;-62
2021/12/21 00:55:00;;;;;;;280.70;132.93;;;;;;;8.17;100.00;99105.97;4862929;29;20483;-62
2021/12/21 00:57:49;;;;;;;288.63;135.13;;;;;;;8.06;100.00;99109.50;4863403;29;20057;-62
2021/12/21 01:00:32;;;;;;;287.40;137.55;;;;;;;8.15;100.00;99112.81;4857438;29;20113;-64
2021/12/21 01:03:24;;;;;;;293.25;133.63;;;;;;;8.21;100.00;99107.63;4855647;29;20064;-62
2021/12/21 01:13:13;;;;;;;295.83;136.15;;;;;;;7.98;100.00;99108.75;4861688;29;20073;-62
2021/12/21 01:18:38;;;;;;;291.17;137.02;;;;;;;7.99;100.00;99118.16;4862316;29;20335;-63
2021/12/21 01:21:33;;;;;;;283.13;135.57;;;;;;;8.23;100.00;99126.41;4863963;29;20049;-63
2021/12/21 01:24:29;;;;;;;310.35;137.68;;;;;;;8.11;100.00;99126.56;4864747;29;20045;-62
2021/12/21 01:27:28;;;;;;;313.77;141.20;;;;;;;8.25;100.00;99122.09;4864703;29;20045;-63
2021/12/21 01:31:02;;;;;;;303.65;141.15;;;;;;;8.13;100.00;99123.13;4855236;29;21005;-63
2021/12/21 01:33:52;;;;;;;314.48;141.77;;;;;;;8.20;100.00;99126.47;4853798;29;20046;-64
2021/12/21 01:36:42;;;;;;;300.35;139.82;;;;;;;8.18;100.00;99123.91;4854688;29;20054;-63
2021/12/21 01:51:52;;;;;;;307.77;138.25;;;;;;;7.98;100.00;99136.16;4849038;29;20384;-63
2021/12/21 01:54:34;;;;;;;298.50;138.32;;;;;;;7.93;100.00;99146.44;4853088;29;20085;-63
2021/12/21 01:57:23;;;;;;;306.02;139.55;;;;;;;7.93;100.00;99143.88;4860117;29;20790;-63
2021/12/21 02:00:06;;;;;;;310.35;143.32;;;;;;;7.94;100.00;99144.72;4854776;29;20394;-63
2021/12/21 02:03:03;;;;;;;304.70;140.95;;;;;;;8.19;100.00;99150.41;4857635;29;20050;-63
2021/12/21 02:05:39;;;;;;;307.20;141.75;;;;;;;8.14;100.00;99147.88;4854604;29;20136;-63
2021/12/21 02:08:29;;;;;;;311.55;144.25;;;;;;;8.07;100.00;99147.13;4854266;29;20077;-64
2021/12/21 02:11:12;;;;;;;305.88;142.80;;;;;;;8.12;100.00;99156.50;4854524;29;20565;-63
2021/12/21 02:14:10;;;;;;;291.02;139.20;;;;;;;8.05;100.00;99158.28;4855029;29;20484;-63
2021/12/21 02:17:25;;;;;;;311.40;141.30;;;;;;;8.07;100.00;99164.22;4853832;29;20053;-64
2021/12/21 02:23:15;;;;;;;304.85;143.05;;;;;;;8.24;100.00;99172.56;4854480;29;20553;-63
2021/12/21 02:28:58;;;;;;;315.50;144.65;;;;;;;8.35;100.00;99175.03;4854124;29;20121;-63
2021/12/21 02:31:50;;;;;;;320.25;146.10;;;;;;;8.38;100.00;99175.00;4842945;29;20573;-63
2021/12/21 02:34:33;;;;;;;313.92;146.00;;;;;;;8.46;100.00;99175.72;4842132;29;20057;-64
2021/12/21 02:37:21;;;;;;;319.63;144.23;;;;;;;8.59;100.00;99176.44;4855033;29;20088;-64
2021/12/21 02:40:04;;;;;;;298.63;143.27;;;;;;;8.66;100.00;99178.88;4861997;29;20050;-64
2021/12/21 02:43:00;;;;;;;307.52;146.43;;;;;;;8.67;100.00;99180.59;4861279;29;20665;-64
2021/12/21 02:45:38;;;;;;;312.50;148.13;;;;;;;8.66;100.00;99180.59;4858137;29;20121;-63
2021/12/21 02:48:33;;;;;;;328.20;151.00;;;;;;;8.93;100.00;99181.94;4865959;29;20076;-63
2021/12/21 02:51:24;;;;;;;315.40;146.70;;;;;;;8.89;100.00;99185.41;4855780;29;20052;-64
2021/12/21 02:54:15;;;;;;;312.75;145.43;;;;;;;9.15;100.00;99189.28;4837492;29;20085;-64
2021/12/21 02:56:58;;;;;;;315.38;146.90;;;;;;;9.15;100.00;99179.00;4840088;29;20140;-63
2021/12/21 02:59:48;;;;;;;326.45;150.45;;;;;;;9.29;100.00;99191.59;4838870;29;20081;-63
2021/12/21 03:02:32;;;;;;;317.65;146.77;;;;;;;9.28;100.00;99183.91;4842456;29;20057;-63
2021/12/21 03:05:22;;;;;;;300.08;143.88;;;;;;;9.31;100.00;99184.72;4841546;29;20136;-64
2021/12/21 03:08:18;;;;;;;;;;;;;;;9.66;100.00;99191.81;4843900;29;20122;-64
2021/12/21 03:14:11;;;;;;;355.33;155.52;;;;;;;9.98;100.00;99189.47;4825257;29;20073;-64
2021/12/21 03:17:01;;;;;;;316.55;149.25;;;;;;;10.20;100.00;99194.25;4830990;29;20057;-65
2021/12/21 03:19:44;;;;;;;314.25;152.82;;;;;;;10.43;100.00;99198.91;4853777;29;20053;-64
2021/12/21 03:22:34;;;;;;;300.73;149.73;;;;;;;10.62;100.00;99200.19;4850504;29;20057;-64
2021/12/21 03:25:18;;;;;;;319.45;153.15;;;;;;;10.94;100.00;99205.47;4857720;29;20053;-64
2021/12/21 03:28:07;;;;;;;326.10;159.75;;;;;;;11.48;100.00;99215.38;4838565;29;20054;-64
2021/12/21 03:31:05;;;;;;;323.60;155.15;;;;;;;11.89;100.00;99219.50;4852842;29;20084;-64
2021/12/21 03:33:40;;;;;;;315.05;151.15;;;;;;;12.19;100.00;99222.97;4857344;29;20049;-64
2021/12/21 03:36:38;;;;;;;322.80;153.57;;;;;;;12.42;100.00;99230.94;4838883;29;20042;-63
2021/12/21 03:39:19;;;;;;;312.73;153.38;;;;;;;12.76;100.00;99232.53;4847965;29;20062;-64
2021/12/21 03:42:08;;;;;;;315.75;158.70;;;;;;;13.10;100.00;99238.34;4831866;29;20064;-64
2021/12/21 03:44:50;;;;;;;301.27;152.30;;;;;;;13.51;100.00;99237.06;4842815;29;20558;-64
2021/12/21 03:47:40;;;;;;;303.67;151.25;;;;;;;13.80;100.00;99243.88;4837499;29;20053;-64
2021/12/21 03:50:27;;;;;;;306.60;151.30;;;;;;;13.96;100.00;99236.41;4850893;29;20057;-64
2021/12/21 03:53:16;;;;;;;305.73;153.80;;;;;;;13.84;100.00;99242.84;4860535;29;20052;-64
2021/12/21 03:56:14;;;;;;;307.42;155.02;;;;;;;14.11;99.71;99249.66;4855102;29;20113;-64
2021/12/21 03:59:04;;;;;;;314.15;152.57;;;;;;;14.74;94.91;99258.63;4843335;29;20489;-62
2021/12/21 04:01:46;;;;;;;294.33;153.23;;;;;;;14.36;92.42;99267.78;4876192;29;20049;-63
2021/12/21 04:04:35;;;;;;;315.75;158.13;;;;;;;14.73;90.54;99263.88;4855913;29;20121;-63
2021/12/21 04:07:18;;;;;;;310.17;155.15;;;;;;;14.96;89.31;99265.59;4855951;29;20064;-62
2021/12/21 04:10:07;;;;;;;303.27;156.75;;;;;;;14.77;91.94;99266.28;4856020;29;20061;-61
2021/12/21 04:12:57;;;;;;;302.67;158.23;;;;;;;14.69;88.60;99273.50;4856142;29;20053;-62
2021/12/21 04:15:43;;;;;;;296.63;155.60;;;;;;;15.00;89.72;99268.03;4844978;29;20121;-61
2021/12/21 04:18:39;;;;;;;311.65;161.05;;;;;;;15.36;90.86;99265.72;4856682;29;20101;-62
2021/12/21 04:21:22;;;;;;;304.13;154.82;;;;;;;15.24;84.92;99268.81;4862748;29;20132;-62
2021/12/21 04:24:12;;;;;;;306.08;158.23;;;;;;;15.56;89.30;99276.19;4864010;29;20046;-61
2021/12/21 04:26:54;;;;;;;313.55;157.98;;;;;;;15.76;85.59;99279.72;4859255;29;20077;-62
2021/12/21 04:29:44;;;;;;;300.70;153.68;;;;;;;15.52;82.78;99271.13;4862462;29;20054;-63
2021/12/21 04:32:32;;;;;;;287.77;152.13;;;;;;;15.82;83.62;99282.03;4864430;29;20052;-63
2021/12/21 04:35:21;;;;;;;295.45;153.35;;;;;;;15.72;82.46;99281.59;4858824;29;20069;-62
2021/12/21 04:38:20;;;;;;;290.80;149.65;;;;;;;15.79;81.20;99290.84;4859692;29;20085;-63
2021/12/21 04:41:21;;;;;;;286.35;143.05;;;;;;;15.65;80.02;99287.94;4858333;29;20065;-62
2021/12/21 04:44:04;;;;;;;282.70;148.25;;;;;;;16.00;80.84;99276.09;4872525;29;20068;-62
2021/12/21 04:46:53;;;;;;;287.08;149.27;;;;;;;15.64;82.09;99273.28;4863309;29;20489;-63
2021/12/21 04:49:52;;;;;;;302.85;153.68;;;;;;;15.74;80.78;99273.72;4853404;29;20049;-65
2021/12/21 04:52:40;;;;;;;293.40;149.90;;;;;;;15.52;80.40;99266.78;4855702;29;20053;-65
2021/12/21 04:55:30;;;;;;;290.17;150.02;;;;;;;15.62;81.57;99270.75;4854175;29;20069;-62
2021/12/21 04:58:13;;;;;;;304.77;151.95;;;;;;;15.95;82.99;99272.84;4830458;29;20138;-67
2021/12/21 05:01:04;;;;;;;275.27;142.38;;;;;;;15.92;80.06;99270.38;4863662;29;20135;-62
2021/12/21 05:03:46;;;;;;;266.02;141.13;;;;;;;16.16;79.89;99269.31;4839106;29;20136;-65
2021/12/21 05:06:36;;;;;;;292.88;143.30;;;;;;;16.20;79.14;99275.25;4853578;29;20079;-63
2021/12/21 05:09:27;;;;;;;253.98;134.40;;;;;;;16.12;78.73;99272.13;4857270;29;20065;-64
2021/12/21 05:12:17;;;;;;;264.65;137.32;;;;;;;16.25;76.51;99271.53;4851731;29;20076;-62
2021/12/21 05:15:00;;;;;;;248.82;133.35;;;;;;;16.74;78.44;99271.97;4854444;29;20773;-64
2021/12/21 05:17:50;;;;;;;238.00;123.28;;;;;;;16.96;70.78;99272.69;4853555;29;20528;-63
2021/12/21 05:20:33;;;;;;;235.13;123.93;;;;;;;17.10;73.64;99272.03;4855539;29;20540;-63
2021/12/21 05:23:22;;;;;;;243.93;122.32;;;;;;;17.37;70.63;99272.47;4851982;29;20054;-62
2021/12/21 05:26:04;;;;;;;236.18;118.47;;;;;;;17.23;69.18;99264.50;4855269;29;20394;-62
2021/12/21 05:28:52;;;;;;;187.45;101.18;;;;;;;17.20;67.51;99263.72;4857272;29;20077;-62
2021/12/21 05:31:35;;;;;;;195.68;96.82;;;;;;;17.47;65.94;99263.31;4856824;29;20061;-62
2021/12/21 05:34:24;;;;;;;172.63;89.78;;;;;;;17.55;68.79;99261.19;4850779;29;20057;-61
2021/12/21 05:37:08;;;;;;;167.55;85.57;;;;;;;17.64;65.43;99254.72;4839515;29;20054;-62
2021/12/21 05:40:02;;;;;;;168.77;88.50;;;;;;;17.52;67.94;99251.75;4853120;29;20148;-61
2021/12/21 05:42:48;;;;;;;176.45;88.50;;;;;;;17.90;66.18;99247.25;4857560;29;20057;-61
2021/12/21 05:45:37;;;;;;;188.65;89.25;;;;;;;18.02;60.78;99253.63;4859698;29;20049;-62
2021/12/21 05:48:19;;;;;;;164.43;86.55;;;;;;;18.02;63.45;99245.78;4858509;29;20057;-62
2021/12/21 05:51:15;;;;;;;171.65;86.90;;;;;;;18.52;64.42;99248.34;4852554;29;20053;-62
2021/12/21 05:53:51;;;;;;;148.10;77.00;;;;;;;18.54;60.68;99256.09;4855311;29;20073;-61
2021/12/21 05:56:40;;;;;;;155.73;71.75;;;;;;;17.92;56.99;99253.25;4858566;29;20136;-61
2021/12/21 05:59:28;;;;;;;140.25;72.55;;;;;;;18.45;58.66;99249.59;4864643;29;20061;-61
2021/12/21 06:02:10;;;;;;;161.20;80.63;;;;;;;18.48;59.46;99249.44;4852771;29;20069;-61
2021/12/21 06:05:00;;;;;;;164.18;86.13;;;;;;;18.05;58.17;99256.03;4852145;29;20547;-61
2021/12/21 06:07:51;;;;;;;178.55;91.45;;;;;;;18.36;60.60;99250.94;4852716;29;20057;-61
2021/12/21 06:10:42;;;;;;;220.75;103.00;;;;;;;18.12;61.72;99240.97;4846417;29;20053;-60
2021/12/21 06:22:52;;;;;;;211.70;105.32;;;;;;;18.83;59.10;99237.16;4843267;29;20334;-61
2021/12/21 06:25:40;;;;;;;213.20;105.30;;;;;;;18.60;55.42;99240.13;4845665;29;20071;-60
2021/12/21 06:28:31;;;;;;;209.23;109.53;;;;;;;18.42;60.88;99230.69;4847005;29;20060;-59
2021/12/21 06:31:14;;;;;;;233.00;114.63;;;;;;;18.71;61.38;99216.94;4832102;29;20140;-59
2021/12/21 06:34:04;;;;;;;227.90;114.15;;;;;;;18.54;58.51;99216.97;4840839;29;20060;-60
2021/12/21 06:36:47;;;;;;;227.55;114.80;;;;;;;18.61;64.82;99210.50;4857821;29;20057;-61
2021/12/21 06:39:36;;;;;;;217.88;110.38;;;;;;;18.57;60.64;99212.47;4850699;29;20049;-60
2021/12/21 06:42:19;;;;;;;238.70;119.47;;;;;;;18.71;60.19;99209.94;4833205;29;20057;-61
2021/12/21 06:45:25;;;;;;;232.75;119.88;;;;;;;18.70;62.81;99199.56;4831295;29;20057;-62
2021/12/21 06:51:30;;;;;;;248.98;124.38;;;;;;;18.68;65.04;99185.75;4851980;29;20073;-62
2021/12/21 06:54:20;;;;;;;220.77;119.97;;;;;;;18.52;58.65;99183.13;4846125;29;20145;-63
2021/12/21 06:57:03;;;;;;;230.68;118.72;;;;;;;18.68;63.41;99163.09;4845767;29;20049;-62
2021/12/21 06:59:53;;;;;;;223.23;117.20;;;;;;;18.91;62.26;99174.91;4863183;29;20060;-60
2021/12/21 07:02:37;;;;;;;210.43;107.50;;;;;;;18.87;55.95;99172.53;4855551;29;20053;-61
2021/12/21 07:05:34;;;;;;;189.38;99.65;;;;;;;18.86;58.25;99170.84;4853875;29;20045;-60
2021/12/21 07:08:15;;;;;;;170.90;90.30;;;;;;;18.87;55.50;99164.72;4858396;29;20077;-59
2021/12/21 07:11:30;;;;;;;162.38;83.60;;;;;;;19.15;55.77;99158.78;4849855;29;20486;-59
2021/12/21 07:20:27;;;;;;;185.02;93.97;;;;;;;19.06;56.40;99153.16;4865764;29;20052;-59
2021/12/21 07:23:09;;;;;;;176.25;91.03;;;;;;;18.87;56.21;99149.88;4859911;29;20587;-60
2021/12/21 07:25:59;;;;;;;197.43;100.30;;;;;;;18.56;56.89;99136.81;4874983;29;20056;-60
2021/12/21 07:28:41;;;;;;;188.98;103.55;;;;;;;18.72;56.52;99138.53;4850541;29;20452;-61
2021/12/21 07:31:30;;;;;;;185.55;91.30;;;;;;;18.77;56.33;99125.22;4858918;29;20057;-62
2021/12/21 07:34:13;;;;;;;190.90;98.97;;;;;;;18.88;54.51;99127.22;4866145;29;20053;-62
2021/12/21 07:37:02;;;;;;;183.70;91.45;;;;;;;18.98;55.21;99133.63;4856425;29;20153;-64
2021/12/21 07:39:45;;;;;;;;;;;;;;;18.93;51.83;99136.47;4863174;29;20057;-61
2021/12/21 07:42:35;;;;;;;134.82;68.20;;;;;;;19.02;50.82;99116.84;4863637;29;19932;-62
2021/12/21 07:45:17;;;;;;;142.95;70.82;;;;;;;18.95;51.13;99113.75;4850668;29;20056;-60
2021/12/21 07:48:08;;;;;;;138.70;71.18;;;;;;;19.09;52.08;99115.56;4848295;29;20940;-63
2021/12/21 07:50:51;;;;;;;134.25;66.50;;;;;;;19.15;49.56;99107.38;4849005;29;20148;-62
2021/12/21 07:53:42;;;;;;;121.93;61.67;;;;;;;19.43;50.47;99115.28;4858777;29;20060;-63
2021/12/21 07:56:31;;;;;;;122.70;60.65;;;;;;;19.18;47.82;99108.94;4859713;29;20058;-62
2021/12/21 07:59:19;;;;;;;111.38;60.65;;;;;;;19.40;49.10;99099.75;4872559;29;20056;-62
2021/12/21 08:02:02;;;;;;;140.35;67.75;;;;;;;18.97;46.77;99084.94;4874863;29;20053;-62
2021/12/21 08:04:52;;;;;;;154.00;75.43;;;;;;;19.22;52.33;99077.34;4859109;29;20453;-61
2021/12/21 08:07:44;;;;;;;163.55;82.68;;;;;;;19.27;53.25;99088.38;4855079;29;20049;-61
2021/12/21 08:10:46;;;;;;;164.05;82.13;;;;;;;19.35;52.13;99083.53;4869238;29;20061;-60
2021/12/21 08:13:28;;;;;;;170.77;87.10;;;;;;;19.21;50.34;99072.22;4837793;29;20857;-61
2021/12/21 08:16:18;;;;;;;177.95;88.05;;;;;;;19.07;50.84;99070.44;4838069;29;20148;-61
2021/12/21 08:19:00;;;;;;;179.18;92.53;;;;;;;19.06;53.22;99073.97;4871641;29;20109;-63
2021/12/21 08:21:50;;;;;;;176.45;98.03;;;;;;;18.93;55.42;99068.59;4871333;29;20053;-61
2021/12/21 08:24:33;;;;;;;208.35;101.68;;;;;;;18.97;55.29;99069.28;4874619;29;20226;-61
2021/12/21 08:27:22;;;;;;;192.73;97.88;;;;;;;18.95;55.98;99066.75;4871803;29;20414;-60
2021/12/21 08:30:05;;;;;;;194.70;97.15;;;;;;;18.91;56.00;99053.97;4867094;29;20057;-61
2021/12/21 08:32:57;;;;;;;187.80;95.65;;;;;;;18.85;55.30;99054.28;4861029;29;20145;-60
2021/12/21 08:35:46;;;;;;;182.32;93.88;;;;;;;18.86;52.63;99045.53;4857327;29;20049;-61
2021/12/21 08:38:37;;;;;;;171.75;89.13;;;;;;;18.98;52.94;99050.91;4862327;29;20064;-62
2021/12/21 08:41:21;;;;;;;164.20;82.50;;;;;;;19.04;55.59;99036.63;4863641;29;20053;-60
2021/12/21 08:44:11;;;;;;;164.18;80.10;;;;;;;18.99;55.72;99041.31;4859061;29;20054;-61
2021/12/21 08:46:57;;;;;;;160.60;75.40;;;;;;;18.84;53.31;99032.56;4863549;29;20077;-62
2021/12/21 08:49:49;;;;;;;151.30;82.55;;;;;;;18.76;54.58;99033.97;4859627;29;20062;-61
2021/12/21 08:52:34;;;;;;;140.48;70.38;;;;;;;18.60;50.71;99024.38;4871386;29;20147;-62
2021/12/21 08:55:24;;;;;;;136.77;71.40;;;;;;;18.52;51.00;99025.72;4862266;29;20080;-63
2021/12/21 08:58:08;;;;;;;151.60;77.25;;;;;;;18.59;52.97;99025.34;4853008;29;20069;-61
2021/12/21 09:00:58;;;;;;;150.30;77.57;;;;;;;18.68;55.28;99027.38;4864200;29;20473;-62
2021/12/21 09:03:42;;;;;;;141.13;69.88;;;;;;;18.65;53.36;99024.13;4861609;29;20063;-62
2021/12/21 09:06:32;;;;;;;135.80;66.82;;;;;;;18.58;51.32;99026.25;4837334;29;20057;-63
2021/12/21 09:09:19;;;;;;;127.13;66.97;;;;;;;18.63;51.64;99024.22;4862878;29;20156;-64
2021/12/21 09:12:08;;;;;;;133.68;66.45;;;;;;;18.61;51.01;99026.06;4878402;29;20068;-62
2021/12/21 09:14:57;;;;;;;146.70;69.90;;;;;;;18.52;50.48;99021.34;4860731;29;20136;-62
2021/12/21 09:17:55;;;;;;;150.00;69.87;;;;;;;18.50;50.52;99024.97;4848096;29;10001282;-62
2021/12/21 09:20:44;;;;;;;135.80;70.43;;;;;;;18.47;53.50;99023.38;4861189;29;20340;-62
2021/12/21 09:23:28;;;;;;;142.18;71.75;;;;;;;18.47;53.46;99023.38;4861012;29;20060;-62
2021/12/21 09:26:17;;;;;;;137.52;71.72;;;;;;;18.46;52.05;99019.06;4869494;29;20057;-62
2021/12/21 09:29:00;;;;;;;147.98;73.43;;;;;;;18.50;54.66;99022.38;4864568;29;20053;-62
2021/12/21 09:31:50;;;;;;;157.25;73.25;;;;;;;18.46;54.15;99021.69;4855797;29;20041;-62
2021/12/21 09:34:33;;;;;;;157.10;75.82;;;;;;;18.45;54.13;99025.22;4868033;29;20064;-62
2021/12/21 09:37:31;;;;;;;146.80;74.53;;;;;;;18.41;53.79;99008.06;4866181;29;20060;-62
2021/12/21 09:40:13;;;;;;;146.32;75.97;;;;;;;18.46;55.12;99011.25;4859192;29;20070;-62
2021/12/21 09:43:10;;;;;;;145.82;75.50;;;;;;;18.58;54.24;99008.00;4854730;29;20118;-62
2021/12/21 09:45:46;;;;;;;152.23;74.57;;;;;;;18.56;54.85;99008.97;4858381;29;20137;-62
2021/12/21 09:48:36;;;;;;;157.45;75.72;;;;;;;18.48;54.25;99004.19;4867208;29;20438;-64
2021/12/21 09:51:33;;;;;;;164.05;77.07;;;;;;;18.42;53.59;99007.16;4843575;29;20567;-63
2021/12/21 09:54:10;;;;;;;144.63;75.43;;;;;;;18.34;54.08;99004.13;4843730;29;20056;-64
2021/12/21 09:57:01;;;;;;;146.57;74.20;;;;;;;18.39;54.38;98998.63;4849897;29;20061;-64
2021/12/21 09:59:52;;;;;;;145.52;74.22;;;;;;;18.30;51.64;98995.63;4842508;29;20137;-62
2021/12/21 10:02:36;;;;;;;147.82;72.97;;;;;;;18.30;52.72;99000.84;4843202;29;20058;-63
2021/12/21 10:05:28;;;;;;;166.82;73.63;;;;;;;18.38;53.92;99000.41;4841881;29;20378;-62
2021/12/21 10:08:16;;;;;;;151.85;74.95;;;;;;;18.30;55.55;98995.63;4841199;29;20064;-61
2021/12/21 10:11:04;;;;;;;;;;;;;;;18.25;56.28;98996.81;4843585;29;20157;-61
2021/12/21 10:13:47;;;;;;;156.90;74.97;;;;;;;18.25;54.98;98991.59;4844553;29;19928;-61
2021/12/21 10:16:35;;;;;;;155.18;76.20;;;;;;;18.26;55.27;98988.06;4840951;29;20057;-61
2021/12/21 10:19:24;;;;;;;153.43;78.00;;;;;;;18.12;57.74;98988.00;4842777;29;20462;-61
2021/12/21 10:22:21;;;;;;;182.65;90.78;;;;;;;18.07;56.55;98987.41;4846323;29;20053;-60
2021/12/21 10:25:09;;;;;;;197.13;95.38;;;;;;;18.03;59.49;98983.31;4841288;29;20668;-61
2021/12/21 10:27:52;;;;;;;203.05;95.28;;;;;;;17.92;59.87;98976.91;4845200;29;20084;-60
2021/12/21 10:30:52;;;;;;;212.57;102.35;;;;;;;17.93;59.19;98968.16;4843690;29;20073;-61
2021/12/21 10:33:44;;;;;;;220.10;100.95;;;;;;;17.89;61.72;98973.63;4843291;29;20751;-62
2021/12/21 10:36:41;;;;;;;200.88;101.40;;;;;;;17.80;63.16;98980.16;4839469;29;20122;-60
2021/12/21 10:39:36;;;;;;;208.57;98.40;;;;;;;17.74;60.64;98983.13;4841322;29;20546;-59
2021/12/21 10:42:18;;;;;;;201.13;97.90;;;;;;;17.60;61.26;98975.19;4846930;29;20401;-61
2021/12/21 10:45:12;;;;;;;213.27;95.45;;;;;;;17.48;60.00;98973.25;4850444;29;20160;-61
2021/12/21 10:47:57;;;;;;;196.20;94.75;;;;;;;17.46;63.01;98975.09;4845421;29;20060;-60
2021/12/21 10:50:57;;;;;;;188.52;91.75;;;;;;;17.33;63.78;98979.25;4860635;29;20426;-61
2021/12/21 10:53:49;;;;;;;184.77;89.30;;;;;;;17.19;63.48;98980.81;4869948;29;20430;-60
2021/12/21 10:56:40;;;;;;;184.13;89.53;;;;;;;17.15;66.02;98976.69;4863072;29;20048;-61
2021/12/21 10:59:32;;;;;;;172.50;87.30;;;;;;;17.17;66.97;98974.84;4854197;29;20060;-60
2021/12/21 11:02:36;;;;;;;178.20;86.78;;;;;;;17.05;67.73;98988.50;4860516;29;20049;-60
2021/12/21 11:05:27;;;;;;;187.88;86.88;;;;;;;17.02;69.38;98974.78;4860636;29;20426;-60
2021/12/21 11:08:17;;;;;;;182.73;87.88;;;;;;;16.93;70.14;98980.47;4851848;29;20136;-62
2021/12/21 11:11:00;;;;;;;189.35;89.80;;;;;;;16.85;71.36;98978.25;4863107;29;20064;-63
2021/12/21 11:13:49;;;;;;;181.52;88.90;;;;;;;16.75;72.20;98977.06;4858283;29;20477;-61
2021/12/21 11:16:49;;;;;;;184.23;89.32;;;;;;;16.64;74.67;98974.97;4866324;29;20101;-61
2021/12/21 11:19:37;;;;;;;188.27;89.30;;;;;;;16.57;75.29;98972.72;4860484;29;20168;-61
2021/12/21 11:22:22;;;;;;;190.85;91.03;;;;;;;16.48;78.19;98970.56;4863245;29;20594;-62
2021/12/21 11:25:12;;;;;;;189.15;90.85;;;;;;;16.38;78.96;98973.63;4862597;29;20450;-61
2021/12/21 11:27:56;;;;;;;184.45;91.20;;;;;;;16.25;80.02;98962.16;4864142;29;20049;-59
2021/12/21 11:30:49;;;;;;;192.40;90.87;;;;;;;16.14;81.34;98960.97;4284998;29;10001860;-60
2021/12/21 11:33:36;;;;;;;187.63;89.53;;;;;;;15.99;82.66;98954.75;4860016;29;20140;-60
2021/12/21 11:39:31;;;;;;;189.52;89.80;;;;;;;15.78;82.73;98951.41;4870060;29;20373;-61
2021/12/21 11:42:45;;;;;;;193.13;90.35;;;;;;;15.65;86.06;98950.28;4857595;29;20417;-61
2021/12/21 11:45:37;;;;;;;207.55;89.80;;;;;;;15.60;85.74;98945.31;4850467;29;20133;-61
2021/12/21 11:48:39;;;;;;;215.70;93.38;;;;;;;15.44;87.47;98956.44;4863414;29;20057;-62
2021/12/21 11:51:30;;;;;;;200.90;91.82;;;;;;;15.23;88.04;98953.91;4850486;29;20060;-61
2021/12/21 11:54:25;;;;;;;196.82;92.13;;;;;;;15.22;90.29;98951.38;4837558;29;20656;-62
2021/12/21 11:57:10;;;;;;;203.55;94.90;;;;;;;15.06;92.30;98953.81;4847585;29;20049;-62
2021/12/21 12:00:11;;;;;;;199.63;93.13;;;;;;;14.94;92.69;98955.16;4864563;29;20137;-61
2021/12/21 12:03:13;;;;;;;207.75;94.82;;;;;;;14.82;92.73;98944.47;4851227;29;20054;-62
2021/12/21 12:06:21;;;;;;;218.55;95.88;;;;;;;14.71;94.07;98944.94;4855899;29;20457;-61
2021/12/21 12:09:05;;;;;;;200.82;96.10;;;;;;;14.67;94.21;98943.41;4852629;29;20065;-62
2021/12/21 12:11:55;;;;;;;211.25;96.55;;;;;;;14.60;95.44;98936.78;4855998;29;20050;-63
2021/12/21 12:14:38;;;;;;;220.15;100.25;;;;;;;14.40;97.04;98934.16;4837084;29;20068;-60
2021/12/21 12:17:28;;;;;;;229.43;100.75;;;;;;;14.41;97.31;98926.34;4854130;29;20062;-60
2021/12/21 12:20:12;;;;;;;239.15;105.05;;;;;;;14.31;98.52;98929.31;4853988;29;20186;-60
2021/12/21 12:23:12;;;;;;;224.15;101.20;;;;;;;14.29;99.69;98933.72;4854545;29;20050;-63
2021/12/21 12:25:57;;;;;;;214.80;106.20;;;;;;;14.14;100.00;98937.78;4858129;29;20057;-63
2021/12/21 12:28:47;;;;;;;262.95;120.78;;;;;;;14.09;100.00;98945.75;4853958;29;20557;-64
2021/12/21 12:31:33;;;;;;;317.92;157.00;;;;;;;13.90;100.00;98941.34;4864719;29;20077;-64
2021/12/21 12:34:34;;;;;;;305.13;149.83;;;;;;;13.91;100.00;98961.16;4863395;29;20850;-64
2021/12/21 12:37:23;;;;;;;271.92;134.82;;;;;;;13.88;100.00;98977.69;4861454;29;20053;-60
2021/12/21 12:40:18;;;;;;;268.80;126.10;;;;;;;13.59;100.00;98976.19;4864670;29;20057;-63
2021/12/21 12:43:08;;;;;;;;;;;;;;;13.69;100.00;98985.31;4856461;29;20140;-64
2021/12/21 12:46:04;;;;;;;269.58;119.03;;;;;;;13.71;100.00;98990.44;4847417;29;19935;-62
2021/12/21 12:48:48;;;;;;;249.95;121.72;;;;;;;13.73;100.00;98979.09;4844991;29;20426;-65
2021/12/21 12:51:51;;;;;;;252.52;117.50;;;;;;;13.71;100.00;98978.34;4860892;29;20042;-63
2021/12/21 12:54:52;;;;;;;250.65;121.70;;;;;;;13.59;100.00;98976.19;4859885;29;20057;-63
2021/12/21 12:58:02;;;;;;;268.15;119.82;;;;;;;13.47;100.00;98981.00;4861076;29;20552;-63
2021/12/21 13:01:06;;;;;;;262.63;122.63;;;;;;;13.70;100.00;98988.75;4855074;29;20053;-62
2021/12/21 13:04:08;;;;;;;270.02;124.00;;;;;;;13.84;100.00;98980.44;4866204;29;20049;-62
2021/12/21 13:06:59;;;;;;;267.63;119.07;;;;;;;13.62;100.00;98983.00;4852071;29;20703;-63
2021/12/21 13:09:48;;;;;;;285.50;122.65;;;;;;;13.50;100.00;98991.22;4861779;29;20056;-63
2021/12/21 13:13:01;;;;;;;283.50;123.93;;;;;;;13.37;100.00;98991.66;4857793;29;20144;-63
2021/12/21 13:15:58;;;;;;;276.92;124.35;;;;;;;13.28;100.00;98988.56;4860464;29;20063;-62
2021/12/21 13:18:58;;;;;;;290.15;128.25;;;;;;;13.28;100.00;99006.69;4870313;29;20132;-62
2021/12/21 13:22:08;;;;;;;283.07;127.10;;;;;;;13.16;100.00;99015.72;4861694;29;20049;-64
2021/12/21 13:25:18;;;;;;;276.00;124.72;;;;;;;13.20;100.00;99016.44;4873228;29;20045;-64
2021/12/21 13:28:24;;;;;;;290.38;127.70;;;;;;;13.16;100.00;99022.66;4863438;29;20045;-65
2021/12/21 13:31:23;;;;;;;294.77;125.20;;;;;;;12.93;100.00;99028.59;4851071;29;20045;-63
2021/12/21 13:34:22;;;;;;;282.88;124.38;;;;;;;13.09;100.00;99024.53;4844652;29;20144;-62
2021/12/21 13:37:39;;;;;;;298.00;129.10;;;;;;;12.96;100.00;99031.03;4863391;29;20050;-62
2021/12/21 13:40:34;;;;;;;277.42;125.85;;;;;;;13.05;100.00;99033.31;4848575;29;20660;-62